sensor_id;sensor_type;location;lat;lon;timestamp;temperature;humidity
21834;DHT22;11079;51.092;3.458;2022-12-18T00:01:24;-1.90;99.90
21834;DHT22;11079;51.092;3.458;2022-12-18T00:03:51;-2.00;99.90
21834;DHT22;11079;51.092;3.458;2022-12-18T00:06:19;-2.00;99.90
21834;DHT22;11079;51.092;3.458;2022-12-18T00:08:45;-2.30;99.90
21834;DHT22;11079;51.092;3.458;2022-12-18T00:11:13;-2.50;99.90
21834;DHT22;11079;51.092;3.458;2022-12-18T00:13:39;-2.60;99.90
21834;DHT22;11079;51.092;3.458;2022-12-18T00:16:07;-2.70;99.90
21834;DHT22;11079;51.092;3.458;2022-12-18T00:18:33;-2.60;99.90
21834;DHT22;11079;51.092;3.458;2022-12-18T00:21:01;-2.60;99.90
21834;DHT22;11079;51.092;3.458;2022-12-18T00:23:27;-2.50;99.90
21834;DHT22;11079;51.092;3.458;2022-12-18T00:25:53;-2.60;99.90
21834;DHT22;11079;51.092;3.458;2022-12-18T00:28:19;-2.50;99.90
21834;DHT22;11079;51.092;3.458;2022-12-18T00:30:45;-2.60;99.90
21834;DHT22;11079;51.092;3.458;2022-12-18T00:33:10;-2.70;99.90
21834;DHT22;11079;51.092;3.458;2022-12-18T00:35:36;-2.80;99.90
21834;DHT22;11079;51.092;3.458;2022-12-18T00:38:01;-2.80;99.90
21834;DHT22;11079;51.092;3.458;2022-12-18T00:40:27;-2.80;99.90
21834;DHT22;11079;51.092;3.458;2022-12-18T00:42:53;-2.80;99.90
21834;DHT22;11079;51.092;3.458;2022-12-18T00:45:23;-2.80;99.90
21834;DHT22;11079;51.092;3.458;2022-12-18T00:47:48;-2.70;99.90
21834;DHT22;11079;51.092;3.458;2022-12-18T00:50:14;-2.60;99.90
21834;DHT22;11079;51.092;3.458;2022-12-18T00:52:40;-2.70;99.90
21834;DHT22;11079;51.092;3.458;2022-12-18T00:55:06;-2.60;99.90
21834;DHT22;11079;51.092;3.458;2022-12-18T00:57:32;-2.60;99.90
21834;DHT22;11079;51.092;3.458;2022-12-18T00:59:57;-2.70;99.90
21834;DHT22;11079;51.092;3.458;2022-12-18T01:02:23;-2.80;99.90
21834;DHT22;11079;51.092;3.458;2022-12-18T01:04:49;-2.80;99.90
21834;DHT22;11079;51.092;3.458;2022-12-18T01:07:14;-2.70;99.90
21834;DHT22;11079;51.092;3.458;2022-12-18T01:09:40;-2.60;99.90
21834;DHT22;11079;51.092;3.458;2022-12-18T01:12:06;-2.40;99.90
21834;DHT22;11079;51.092;3.458;2022-12-18T01:14:31;-2.50;99.90
21834;DHT22;11079;51.092;3.458;2022-12-18T01:16:57;-2.40;99.90
21834;DHT22;11079;51.092;3.458;2022-12-18T01:19:23;-2.40;99.90
21834;DHT22;11079;51.092;3.458;2022-12-18T01:21:49;-2.40;99.90
21834;DHT22;11079;51.092;3.458;2022-12-18T01:24:14;-2.30;99.90
21834;DHT22;11079;51.092;3.458;2022-12-18T01:26:40;-2.40;99.90
21834;DHT22;11079;51.092;3.458;2022-12-18T01:29:06;-2.50;99.90
21834;DHT22;11079;51.092;3.458;2022-12-18T01:31:33;-2.70;99.90
21834;DHT22;11079;51.092;3.458;2022-12-18T01:34:01;-2.80;99.90
21834;DHT22;11079;51.092;3.458;2022-12-18T01:36:30;-2.90;99.90
21834;DHT22;11079;51.092;3.458;2022-12-18T01:38:58;-2.90;99.90
21834;DHT22;11079;51.092;3.458;2022-12-18T01:41:27;-3.10;99.90
21834;DHT22;11079;51.092;3.458;2022-12-18T01:50:20;-2.50;99.90
21834;DHT22;11079;51.092;3.458;2022-12-18T01:52:52;-2.40;99.90
21834;DHT22;11079;51.092;3.458;2022-12-18T01:55:22;-2.40;99.90
21834;DHT22;11079;51.092;3.458;2022-12-18T01:57:48;-2.50;99.90
21834;DHT22;11079;51.092;3.458;2022-12-18T02:00:18;-2.60;99.90
21834;DHT22;11079;51.092;3.458;2022-12-18T02:02:45;-2.60;99.90
21834;DHT22;11079;51.092;3.458;2022-12-18T02:05:17;-2.60;99.90
21834;DHT22;11079;51.092;3.458;2022-12-18T02:10:29;-2.70;99.90
21834;DHT22;11079;51.092;3.458;2022-12-18T02:13:11;-2.90;99.90
21834;DHT22;11079;51.092;3.458;2022-12-18T02:15:43;-2.90;99.90
21834;DHT22;11079;51.092;3.458;2022-12-18T02:18:18;-2.80;99.90
21834;DHT22;11079;51.092;3.458;2022-12-18T02:20:49;-2.80;99.90
21834;DHT22;11079;51.092;3.458;2022-12-18T02:28:54;-2.60;99.90
21834;DHT22;11079;51.092;3.458;2022-12-18T02:31:27;-2.50;99.90
21834;DHT22;11079;51.092;3.458;2022-12-18T02:33:56;-2.60;99.90
21834;DHT22;11079;51.092;3.458;2022-12-18T02:36:24;-2.70;99.90
21834;DHT22;11079;51.092;3.458;2022-12-18T02:38:51;-2.70;99.90
21834;DHT22;11079;51.092;3.458;2022-12-18T02:41:18;-2.70;99.90
21834;DHT22;11079;51.092;3.458;2022-12-18T02:43:48;-2.80;99.90
21834;DHT22;11079;51.092;3.458;2022-12-18T02:46:35;-2.80;99.90
21834;DHT22;11079;51.092;3.458;2022-12-18T02:51:55;-2.90;99.90
21834;DHT22;11079;51.092;3.458;2022-12-18T02:57:13;-3.10;99.90
21834;DHT22;11079;51.092;3.458;2022-12-18T02:59:58;-3.10;99.90
21834;DHT22;11079;51.092;3.458;2022-12-18T03:02:59;-3.30;99.90
21834;DHT22;11079;51.092;3.458;2022-12-18T03:05:56;-3.10;99.90
21834;DHT22;11079;51.092;3.458;2022-12-18T03:08:27;-3.30;99.90
21834;DHT22;11079;51.092;3.458;2022-12-18T03:11:05;-3.40;99.90
21834;DHT22;11079;51.092;3.458;2022-12-18T03:13:35;-3.50;99.90
21834;DHT22;11079;51.092;3.458;2022-12-18T03:16:14;-3.50;99.90
21834;DHT22;11079;51.092;3.458;2022-12-18T03:18:47;-3.60;99.90
21834;DHT22;11079;51.092;3.458;2022-12-18T03:21:21;-3.60;99.90
21834;DHT22;11079;51.092;3.458;2022-12-18T03:23:49;-3.50;99.90
21834;DHT22;11079;51.092;3.458;2022-12-18T03:26:19;-3.30;99.90
21834;DHT22;11079;51.092;3.458;2022-12-18T03:28:51;-3.20;99.90
21834;DHT22;11079;51.092;3.458;2022-12-18T03:31:19;-3.10;99.90
21834;DHT22;11079;51.092;3.458;2022-12-18T03:33:58;-3.20;99.90
21834;DHT22;11079;51.092;3.458;2022-12-18T03:36:25;-3.10;99.90
21834;DHT22;11079;51.092;3.458;2022-12-18T03:38:51;-2.90;99.90
21834;DHT22;11079;51.092;3.458;2022-12-18T03:44:16;-3.10;99.90
21834;DHT22;11079;51.092;3.458;2022-12-18T03:46:53;-3.10;99.90
21834;DHT22;11079;51.092;3.458;2022-12-18T03:49:25;-3.10;99.90
21834;DHT22;11079;51.092;3.458;2022-12-18T03:51:59;-3.10;99.90
21834;DHT22;11079;51.092;3.458;2022-12-18T03:54:27;-3.10;99.90
21834;DHT22;11079;51.092;3.458;2022-12-18T03:57:00;-3.20;99.90
21834;DHT22;11079;51.092;3.458;2022-12-18T03:59:29;-3.00;99.90
21834;DHT22;11079;51.092;3.458;2022-12-18T04:01:56;-3.10;99.90
21834;DHT22;11079;51.092;3.458;2022-12-18T04:04:24;-3.30;99.90
21834;DHT22;11079;51.092;3.458;2022-12-18T04:06:51;-3.40;99.90
21834;DHT22;11079;51.092;3.458;2022-12-18T04:09:18;-3.30;99.90
21834;DHT22;11079;51.092;3.458;2022-12-18T04:11:44;-3.30;99.90
21834;DHT22;11079;51.092;3.458;2022-12-18T04:14:11;-3.30;99.90
21834;DHT22;11079;51.092;3.458;2022-12-18T04:16:37;-3.30;99.90
21834;DHT22;11079;51.092;3.458;2022-12-18T04:19:03;-3.50;99.90
21834;DHT22;11079;51.092;3.458;2022-12-18T04:21:29;-3.40;99.90
21834;DHT22;11079;51.092;3.458;2022-12-18T04:23:54;-3.40;99.90
21834;DHT22;11079;51.092;3.458;2022-12-18T04:26:20;-3.60;99.90
21834;DHT22;11079;51.092;3.458;2022-12-18T04:28:46;-3.50;99.90
21834;DHT22;11079;51.092;3.458;2022-12-18T04:31:12;-3.50;99.90
21834;DHT22;11079;51.092;3.458;2022-12-18T04:33:38;-3.40;99.90
21834;DHT22;11079;51.092;3.458;2022-12-18T04:36:04;-3.60;99.90
21834;DHT22;11079;51.092;3.458;2022-12-18T04:38:30;-3.60;99.90
21834;DHT22;11079;51.092;3.458;2022-12-18T04:40:56;-3.40;99.90
21834;DHT22;11079;51.092;3.458;2022-12-18T04:43:21;-3.30;99.90
21834;DHT22;11079;51.092;3.458;2022-12-18T04:45:47;-3.30;99.90
21834;DHT22;11079;51.092;3.458;2022-12-18T04:48:12;-3.40;99.90
21834;DHT22;11079;51.092;3.458;2022-12-18T04:50:38;-3.50;99.90
21834;DHT22;11079;51.092;3.458;2022-12-18T04:53:04;-3.50;99.90
21834;DHT22;11079;51.092;3.458;2022-12-18T04:55:29;-3.60;99.90
21834;DHT22;11079;51.092;3.458;2022-12-18T04:57:55;-3.60;99.90
21834;DHT22;11079;51.092;3.458;2022-12-18T05:00:21;-3.60;99.90
21834;DHT22;11079;51.092;3.458;2022-12-18T05:02:46;-3.90;99.90
21834;DHT22;11079;51.092;3.458;2022-12-18T05:05:12;-4.20;99.90
21834;DHT22;11079;51.092;3.458;2022-12-18T05:07:38;-4.10;99.90
21834;DHT22;11079;51.092;3.458;2022-12-18T05:10:04;-4.00;99.90
21834;DHT22;11079;51.092;3.458;2022-12-18T05:12:31;-3.80;99.90
21834;DHT22;11079;51.092;3.458;2022-12-18T05:14:56;-3.50;99.90
21834;DHT22;11079;51.092;3.458;2022-12-18T05:17:22;-3.50;99.90
21834;DHT22;11079;51.092;3.458;2022-12-18T05:19:48;-3.60;99.90
21834;DHT22;11079;51.092;3.458;2022-12-18T05:22:13;-3.60;99.90
21834;DHT22;11079;51.092;3.458;2022-12-18T05:24:39;-3.50;99.90
21834;DHT22;11079;51.092;3.458;2022-12-18T05:27:04;-3.40;99.90
21834;DHT22;11079;51.092;3.458;2022-12-18T05:29:30;-3.60;99.90
21834;DHT22;11079;51.092;3.458;2022-12-18T05:31:56;-3.50;99.90
21834;DHT22;11079;51.092;3.458;2022-12-18T05:34:21;-3.50;99.90
21834;DHT22;11079;51.092;3.458;2022-12-18T05:36:47;-3.50;99.90
21834;DHT22;11079;51.092;3.458;2022-12-18T05:39:12;-3.50;99.90
21834;DHT22;11079;51.092;3.458;2022-12-18T05:41:38;-3.50;99.90
21834;DHT22;11079;51.092;3.458;2022-12-18T05:44:04;-3.50;99.90
21834;DHT22;11079;51.092;3.458;2022-12-18T05:46:30;-3.40;99.90
21834;DHT22;11079;51.092;3.458;2022-12-18T05:48:59;-3.30;99.90
21834;DHT22;11079;51.092;3.458;2022-12-18T05:51:26;-3.20;99.90
21834;DHT22;11079;51.092;3.458;2022-12-18T05:53:52;-3.30;99.90
21834;DHT22;11079;51.092;3.458;2022-12-18T05:56:22;-3.30;99.90
21834;DHT22;11079;51.092;3.458;2022-12-18T05:58:52;-3.40;99.90
21834;DHT22;11079;51.092;3.458;2022-12-18T06:01:21;-3.50;99.90
21834;DHT22;11079;51.092;3.458;2022-12-18T06:03:47;-3.60;99.90
21834;DHT22;11079;51.092;3.458;2022-12-18T06:06:24;-3.70;99.90
21834;DHT22;11079;51.092;3.458;2022-12-18T06:08:50;-3.70;99.90
21834;DHT22;11079;51.092;3.458;2022-12-18T06:11:19;-3.60;99.90
21834;DHT22;11079;51.092;3.458;2022-12-18T06:13:45;-3.60;99.90
21834;DHT22;11079;51.092;3.458;2022-12-18T06:16:12;-3.60;99.90
21834;DHT22;11079;51.092;3.458;2022-12-18T06:18:38;-3.50;99.90
21834;DHT22;11079;51.092;3.458;2022-12-18T06:21:04;-3.50;99.90
21834;DHT22;11079;51.092;3.458;2022-12-18T06:23:29;-3.40;99.90
21834;DHT22;11079;51.092;3.458;2022-12-18T06:25:55;-3.40;99.90
21834;DHT22;11079;51.092;3.458;2022-12-18T06:28:21;-3.50;99.90
21834;DHT22;11079;51.092;3.458;2022-12-18T06:30:47;-3.60;99.90
21834;DHT22;11079;51.092;3.458;2022-12-18T06:33:14;-3.80;99.90
21834;DHT22;11079;51.092;3.458;2022-12-18T06:35:40;-3.70;99.90
21834;DHT22;11079;51.092;3.458;2022-12-18T06:38:06;-3.60;99.90
21834;DHT22;11079;51.092;3.458;2022-12-18T06:40:32;-3.70;99.90
21834;DHT22;11079;51.092;3.458;2022-12-18T06:42:57;-3.50;99.90
21834;DHT22;11079;51.092;3.458;2022-12-18T06:45:23;-3.50;99.90
21834;DHT22;11079;51.092;3.458;2022-12-18T06:47:49;-3.50;99.90
21834;DHT22;11079;51.092;3.458;2022-12-18T06:50:15;-3.50;99.90
21834;DHT22;11079;51.092;3.458;2022-12-18T06:52:41;-3.60;99.90
21834;DHT22;11079;51.092;3.458;2022-12-18T06:55:08;-3.70;99.90
21834;DHT22;11079;51.092;3.458;2022-12-18T06:57:33;-3.70;99.90
21834;DHT22;11079;51.092;3.458;2022-12-18T07:00:00;-3.60;99.90
21834;DHT22;11079;51.092;3.458;2022-12-18T07:02:25;-3.70;99.90
21834;DHT22;11079;51.092;3.458;2022-12-18T07:04:51;-3.60;99.90
21834;DHT22;11079;51.092;3.458;2022-12-18T07:07:16;-3.50;99.90
21834;DHT22;11079;51.092;3.458;2022-12-18T07:09:42;-3.60;99.90
21834;DHT22;11079;51.092;3.458;2022-12-18T07:12:08;-3.60;99.90
21834;DHT22;11079;51.092;3.458;2022-12-18T07:14:34;-3.70;99.90
21834;DHT22;11079;51.092;3.458;2022-12-18T07:17:00;-3.40;99.90
21834;DHT22;11079;51.092;3.458;2022-12-18T07:19:25;-3.40;99.90
21834;DHT22;11079;51.092;3.458;2022-12-18T07:21:51;-3.50;99.90
21834;DHT22;11079;51.092;3.458;2022-12-18T07:24:17;-3.60;99.90
21834;DHT22;11079;51.092;3.458;2022-12-18T07:26:45;-3.50;99.90
21834;DHT22;11079;51.092;3.458;2022-12-18T07:29:10;-3.60;99.90
21834;DHT22;11079;51.092;3.458;2022-12-18T07:31:36;-3.70;99.90
21834;DHT22;11079;51.092;3.458;2022-12-18T07:34:01;-3.70;99.90
21834;DHT22;11079;51.092;3.458;2022-12-18T07:36:27;-3.70;99.90
21834;DHT22;11079;51.092;3.458;2022-12-18T07:38:53;-3.70;99.90
21834;DHT22;11079;51.092;3.458;2022-12-18T07:41:19;-3.60;99.90
21834;DHT22;11079;51.092;3.458;2022-12-18T07:43:45;-3.80;99.90
21834;DHT22;11079;51.092;3.458;2022-12-18T07:46:12;-3.70;99.90
21834;DHT22;11079;51.092;3.458;2022-12-18T07:48:41;-3.70;99.90
21834;DHT22;11079;51.092;3.458;2022-12-18T07:51:08;-3.60;99.90
21834;DHT22;11079;51.092;3.458;2022-12-18T07:53:35;-3.70;99.90
21834;DHT22;11079;51.092;3.458;2022-12-18T07:56:03;-3.70;99.90
21834;DHT22;11079;51.092;3.458;2022-12-18T07:58:30;-3.70;99.90
21834;DHT22;11079;51.092;3.458;2022-12-18T08:01:07;-3.70;99.90
21834;DHT22;11079;51.092;3.458;2022-12-18T08:03:33;-3.50;99.90
21834;DHT22;11079;51.092;3.458;2022-12-18T08:06:04;-3.50;99.90
21834;DHT22;11079;51.092;3.458;2022-12-18T08:08:30;-3.30;99.90
21834;DHT22;11079;51.092;3.458;2022-12-18T08:10:56;-3.30;99.90
21834;DHT22;11079;51.092;3.458;2022-12-18T08:13:23;-3.30;99.90
21834;DHT22;11079;51.092;3.458;2022-12-18T08:16:03;-3.20;99.90
21834;DHT22;11079;51.092;3.458;2022-12-18T08:18:29;-3.20;99.90
21834;DHT22;11079;51.092;3.458;2022-12-18T08:20:57;-3.00;99.90
21834;DHT22;11079;51.092;3.458;2022-12-18T08:23:22;-2.70;99.90
21834;DHT22;11079;51.092;3.458;2022-12-18T08:25:48;-2.50;99.90
21834;DHT22;11079;51.092;3.458;2022-12-18T08:28:14;-2.30;99.90
21834;DHT22;11079;51.092;3.458;2022-12-18T08:30:39;-2.10;99.90
21834;DHT22;11079;51.092;3.458;2022-12-18T08:33:05;-2.10;99.90
21834;DHT22;11079;51.092;3.458;2022-12-18T08:35:35;-2.20;99.90
21834;DHT22;11079;51.092;3.458;2022-12-18T08:38:00;-2.10;99.90
21834;DHT22;11079;51.092;3.458;2022-12-18T08:40:26;-2.20;99.90
21834;DHT22;11079;51.092;3.458;2022-12-18T08:42:51;-2.20;99.90
21834;DHT22;11079;51.092;3.458;2022-12-18T08:45:35;-2.20;99.90
21834;DHT22;11079;51.092;3.458;2022-12-18T08:48:01;-2.20;99.90
21834;DHT22;11079;51.092;3.458;2022-12-18T08:50:26;-2.40;99.90
21834;DHT22;11079;51.092;3.458;2022-12-18T08:52:52;-2.40;99.90
21834;DHT22;11079;51.092;3.458;2022-12-18T08:55:18;-2.30;99.90
21834;DHT22;11079;51.092;3.458;2022-12-18T08:57:43;-2.20;99.90
21834;DHT22;11079;51.092;3.458;2022-12-18T09:00:13;-1.90;99.90
21834;DHT22;11079;51.092;3.458;2022-12-18T09:02:39;-1.60;99.90
21834;DHT22;11079;51.092;3.458;2022-12-18T09:05:06;-1.60;99.90
21834;DHT22;11079;51.092;3.458;2022-12-18T09:07:31;-1.50;99.90
21834;DHT22;11079;51.092;3.458;2022-12-18T09:09:57;-1.50;99.90
21834;DHT22;11079;51.092;3.458;2022-12-18T09:12:22;-1.40;99.90
21834;DHT22;11079;51.092;3.458;2022-12-18T09:14:48;-1.20;99.90
21834;DHT22;11079;51.092;3.458;2022-12-18T09:17:13;-1.40;99.90
21834;DHT22;11079;51.092;3.458;2022-12-18T09:19:39;-1.50;99.90
21834;DHT22;11079;51.092;3.458;2022-12-18T09:22:05;-1.60;99.90
21834;DHT22;11079;51.092;3.458;2022-12-18T09:24:31;-1.50;99.90
21834;DHT22;11079;51.092;3.458;2022-12-18T09:26:56;-1.30;99.90
21834;DHT22;11079;51.092;3.458;2022-12-18T09:29:22;-1.20;99.90
21834;DHT22;11079;51.092;3.458;2022-12-18T09:31:47;-1.20;99.90
21834;DHT22;11079;51.092;3.458;2022-12-18T09:34:14;-1.10;99.90
21834;DHT22;11079;51.092;3.458;2022-12-18T09:36:40;-1.00;99.90
21834;DHT22;11079;51.092;3.458;2022-12-18T09:39:06;-1.20;99.90
21834;DHT22;11079;51.092;3.458;2022-12-18T09:47:03;-1.30;99.90
21834;DHT22;11079;51.092;3.458;2022-12-18T09:49:33;-1.30;99.90
21834;DHT22;11079;51.092;3.458;2022-12-18T09:54:39;-1.20;99.90
21834;DHT22;11079;51.092;3.458;2022-12-18T09:57:05;-1.10;99.90
21834;DHT22;11079;51.092;3.458;2022-12-18T09:59:35;-1.20;99.90
21834;DHT22;11079;51.092;3.458;2022-12-18T10:02:20;-0.90;99.90
21834;DHT22;11079;51.092;3.458;2022-12-18T10:07:41;-0.90;99.90
21834;DHT22;11079;51.092;3.458;2022-12-18T10:15:51;-0.90;99.90
21834;DHT22;11079;51.092;3.458;2022-12-18T10:21:39;-0.80;99.90
21834;DHT22;11079;51.092;3.458;2022-12-18T10:26:54;-1.00;99.90
21834;DHT22;11079;51.092;3.458;2022-12-18T10:29:21;-1.10;99.90
21834;DHT22;11079;51.092;3.458;2022-12-18T10:31:47;-1.10;99.90
21834;DHT22;11079;51.092;3.458;2022-12-18T10:34:13;-1.00;99.90
21834;DHT22;11079;51.092;3.458;2022-12-18T10:36:39;-0.90;99.90
21834;DHT22;11079;51.092;3.458;2022-12-18T10:41:41;-0.80;99.90
21834;DHT22;11079;51.092;3.458;2022-12-18T10:44:22;-0.80;99.90
21834;DHT22;11079;51.092;3.458;2022-12-18T10:46:54;-0.70;99.90
21834;DHT22;11079;51.092;3.458;2022-12-18T10:49:26;-0.60;99.90
21834;DHT22;11079;51.092;3.458;2022-12-18T10:52:07;-0.70;99.90
21834;DHT22;11079;51.092;3.458;2022-12-18T10:54:36;-0.60;99.90
21834;DHT22;11079;51.092;3.458;2022-12-18T10:57:36;-0.50;99.90
21834;DHT22;11079;51.092;3.458;2022-12-18T11:00:25;-0.50;99.90
21834;DHT22;11079;51.092;3.458;2022-12-18T11:02:51;-0.50;99.90
21834;DHT22;11079;51.092;3.458;2022-12-18T11:05:27;-0.50;99.90
21834;DHT22;11079;51.092;3.458;2022-12-18T11:07:54;-0.60;99.90
21834;DHT22;11079;51.092;3.458;2022-12-18T11:10:23;-0.50;99.90
21834;DHT22;11079;51.092;3.458;2022-12-18T11:12:50;-0.50;99.90
21834;DHT22;11079;51.092;3.458;2022-12-18T11:15:28;-0.30;99.90
21834;DHT22;11079;51.092;3.458;2022-12-18T11:17:55;-0.50;99.90
21834;DHT22;11079;51.092;3.458;2022-12-18T11:23:02;-0.60;99.90
21834;DHT22;11079;51.092;3.458;2022-12-18T11:25:30;-0.30;99.90
21834;DHT22;11079;51.092;3.458;2022-12-18T11:27:59;-0.30;99.90
21834;DHT22;11079;51.092;3.458;2022-12-18T11:33:04;-0.20;99.90
21834;DHT22;11079;51.092;3.458;2022-12-18T11:40:41;0.10;99.90
21834;DHT22;11079;51.092;3.458;2022-12-18T11:43:15;0.30;99.90
21834;DHT22;11079;51.092;3.458;2022-12-18T11:48:49;0.20;99.90
21834;DHT22;11079;51.092;3.458;2022-12-18T11:51:27;0.30;99.90
21834;DHT22;11079;51.092;3.458;2022-12-18T11:53:54;0.40;99.90
21834;DHT22;11079;51.092;3.458;2022-12-18T11:56:39;0.30;99.90
21834;DHT22;11079;51.092;3.458;2022-12-18T11:59:44;0.30;99.90
21834;DHT22;11079;51.092;3.458;2022-12-18T12:02:33;0.40;99.90
21834;DHT22;11079;51.092;3.458;2022-12-18T12:08:11;0.30;99.90
21834;DHT22;11079;51.092;3.458;2022-12-18T12:16:49;0.50;99.90
21834;DHT22;11079;51.092;3.458;2022-12-18T12:22:35;0.60;99.90
21834;DHT22;11079;51.092;3.458;2022-12-18T12:25:19;0.70;99.90
21834;DHT22;11079;51.092;3.458;2022-12-18T12:27:58;0.80;99.90
21834;DHT22;11079;51.092;3.458;2022-12-18T12:30:59;0.70;99.90
21834;DHT22;11079;51.092;3.458;2022-12-18T12:33:51;0.70;99.90
21834;DHT22;11079;51.092;3.458;2022-12-18T12:36:42;0.60;99.90
21834;DHT22;11079;51.092;3.458;2022-12-18T12:39:17;0.70;99.90
21834;DHT22;11079;51.092;3.458;2022-12-18T12:41:45;0.50;99.90
21834;DHT22;11079;51.092;3.458;2022-12-18T12:44:46;0.80;99.90
21834;DHT22;11079;51.092;3.458;2022-12-18T12:47:18;1.00;99.90
21834;DHT22;11079;51.092;3.458;2022-12-18T12:49:46;0.80;99.90
21834;DHT22;11079;51.092;3.458;2022-12-18T12:52:27;0.70;99.90
21834;DHT22;11079;51.092;3.458;2022-12-18T12:54:54;0.70;99.90
21834;DHT22;11079;51.092;3.458;2022-12-18T12:57:26;0.60;99.90
21834;DHT22;11079;51.092;3.458;2022-12-18T13:00:15;0.80;99.90
21834;DHT22;11079;51.092;3.458;2022-12-18T13:02:51;0.70;99.90
21834;DHT22;11079;51.092;3.458;2022-12-18T13:07:55;0.70;99.90
21834;DHT22;11079;51.092;3.458;2022-12-18T13:10:26;0.60;99.90
21834;DHT22;11079;51.092;3.458;2022-12-18T13:15:31;0.50;99.90
21834;DHT22;11079;51.092;3.458;2022-12-18T13:20:34;0.40;99.90
21834;DHT22;11079;51.092;3.458;2022-12-18T13:25:46;0.20;99.90
21834;DHT22;11079;51.092;3.458;2022-12-18T13:28:15;0.30;99.90
21834;DHT22;11079;51.092;3.458;2022-12-18T13:30:45;0.00;99.90
21834;DHT22;11079;51.092;3.458;2022-12-18T13:33:42;0.10;99.90
21834;DHT22;11079;51.092;3.458;2022-12-18T13:39:20;0.30;99.90
21834;DHT22;11079;51.092;3.458;2022-12-18T13:41:51;0.10;99.90
21834;DHT22;11079;51.092;3.458;2022-12-18T13:44:40;0.10;99.90
21834;DHT22;11079;51.092;3.458;2022-12-18T13:47:32;0.30;99.90
21834;DHT22;11079;51.092;3.458;2022-12-18T13:50:00;0.40;99.90
21834;DHT22;11079;51.092;3.458;2022-12-18T13:52:33;0.40;99.90
21834;DHT22;11079;51.092;3.458;2022-12-18T13:55:02;0.40;99.90
21834;DHT22;11079;51.092;3.458;2022-12-18T13:57:30;0.50;99.90
21834;DHT22;11079;51.092;3.458;2022-12-18T13:59:59;0.30;99.90
21834;DHT22;11079;51.092;3.458;2022-12-18T14:02:44;0.30;99.90
21834;DHT22;11079;51.092;3.458;2022-12-18T14:07:47;0.40;99.90
21834;DHT22;11079;51.092;3.458;2022-12-18T14:10:25;0.50;99.90
21834;DHT22;11079;51.092;3.458;2022-12-18T14:12:56;0.60;99.90
21834;DHT22;11079;51.092;3.458;2022-12-18T14:15:43;0.50;99.90
21834;DHT22;11079;51.092;3.458;2022-12-18T14:21:20;0.40;99.90
21834;DHT22;11079;51.092;3.458;2022-12-18T14:23:47;0.50;99.90
21834;DHT22;11079;51.092;3.458;2022-12-18T14:26:31;0.60;99.90
21834;DHT22;11079;51.092;3.458;2022-12-18T14:29:00;0.60;99.90
21834;DHT22;11079;51.092;3.458;2022-12-18T14:31:29;0.60;99.90
21834;DHT22;11079;51.092;3.458;2022-12-18T14:33:56;0.50;99.90
21834;DHT22;11079;51.092;3.458;2022-12-18T14:36:28;0.50;99.90
21834;DHT22;11079;51.092;3.458;2022-12-18T14:38:56;0.50;99.90
21834;DHT22;11079;51.092;3.458;2022-12-18T14:41:23;0.60;99.90
21834;DHT22;11079;51.092;3.458;2022-12-18T14:43:51;0.70;99.90
21834;DHT22;11079;51.092;3.458;2022-12-18T14:46:57;0.60;99.90
21834;DHT22;11079;51.092;3.458;2022-12-18T14:49:33;0.50;99.90
21834;DHT22;11079;51.092;3.458;2022-12-18T14:52:18;0.50;99.90
21834;DHT22;11079;51.092;3.458;2022-12-18T14:54:47;0.50;99.90
21834;DHT22;11079;51.092;3.458;2022-12-18T14:57:23;0.60;99.90
21834;DHT22;11079;51.092;3.458;2022-12-18T14:59:50;0.60;99.90
21834;DHT22;11079;51.092;3.458;2022-12-18T15:02:25;0.60;99.90
21834;DHT22;11079;51.092;3.458;2022-12-18T15:05:14;0.50;99.90
21834;DHT22;11079;51.092;3.458;2022-12-18T15:07:49;0.60;99.90
21834;DHT22;11079;51.092;3.458;2022-12-18T15:10:21;0.70;99.90
21834;DHT22;11079;51.092;3.458;2022-12-18T15:21:07;0.70;99.90
21834;DHT22;11079;51.092;3.458;2022-12-18T15:23:51;0.70;99.90
21834;DHT22;11079;51.092;3.458;2022-12-18T15:26:25;0.70;99.90
21834;DHT22;11079;51.092;3.458;2022-12-18T15:28:55;0.80;99.90
21834;DHT22;11079;51.092;3.458;2022-12-18T15:31:33;0.80;99.90
21834;DHT22;11079;51.092;3.458;2022-12-18T15:34:19;0.70;99.90
21834;DHT22;11079;51.092;3.458;2022-12-18T15:36:46;0.70;99.90
21834;DHT22;11079;51.092;3.458;2022-12-18T15:39:13;0.80;99.90
21834;DHT22;11079;51.092;3.458;2022-12-18T15:41:41;0.90;99.90
21834;DHT22;11079;51.092;3.458;2022-12-18T15:44:27;0.80;99.90
21834;DHT22;11079;51.092;3.458;2022-12-18T15:46:53;1.00;99.90
21834;DHT22;11079;51.092;3.458;2022-12-18T15:49:21;1.00;99.90
21834;DHT22;11079;51.092;3.458;2022-12-18T15:51:54;0.90;99.90
21834;DHT22;11079;51.092;3.458;2022-12-18T15:54:20;0.90;99.90
21834;DHT22;11079;51.092;3.458;2022-12-18T15:57:08;1.00;99.90
21834;DHT22;11079;51.092;3.458;2022-12-18T15:59:49;1.00;99.90
21834;DHT22;11079;51.092;3.458;2022-12-18T16:02:19;1.00;99.90
21834;DHT22;11079;51.092;3.458;2022-12-18T16:04:45;1.00;99.90
21834;DHT22;11079;51.092;3.458;2022-12-18T16:07:11;1.00;99.90
21834;DHT22;11079;51.092;3.458;2022-12-18T16:09:37;0.70;99.90
21834;DHT22;11079;51.092;3.458;2022-12-18T16:12:04;1.00;99.90
21834;DHT22;11079;51.092;3.458;2022-12-18T16:14:31;0.80;99.90
21834;DHT22;11079;51.092;3.458;2022-12-18T16:16:59;0.80;99.90
21834;DHT22;11079;51.092;3.458;2022-12-18T16:19:26;0.80;99.90
21834;DHT22;11079;51.092;3.458;2022-12-18T16:21:53;0.90;99.90
21834;DHT22;11079;51.092;3.458;2022-12-18T16:24:24;0.90;99.90
21834;DHT22;11079;51.092;3.458;2022-12-18T16:26:51;1.00;99.90
21834;DHT22;11079;51.092;3.458;2022-12-18T16:29:17;0.90;99.90
21834;DHT22;11079;51.092;3.458;2022-12-18T16:31:43;0.80;99.90
21834;DHT22;11079;51.092;3.458;2022-12-18T16:34:29;0.90;99.90
21834;DHT22;11079;51.092;3.458;2022-12-18T16:37:01;0.80;99.90
21834;DHT22;11079;51.092;3.458;2022-12-18T16:39:27;0.80;99.90
21834;DHT22;11079;51.092;3.458;2022-12-18T16:41:53;0.80;99.90
21834;DHT22;11079;51.092;3.458;2022-12-18T16:44:19;0.80;99.90
21834;DHT22;11079;51.092;3.458;2022-12-18T16:46:45;0.90;99.90
21834;DHT22;11079;51.092;3.458;2022-12-18T16:49:16;1.00;99.90
21834;DHT22;11079;51.092;3.458;2022-12-18T16:51:42;1.00;99.90
21834;DHT22;11079;51.092;3.458;2022-12-18T16:54:08;0.80;99.90
21834;DHT22;11079;51.092;3.458;2022-12-18T16:56:34;0.80;99.90
21834;DHT22;11079;51.092;3.458;2022-12-18T16:59:01;0.90;99.90
21834;DHT22;11079;51.092;3.458;2022-12-18T17:01:28;0.80;99.90
21834;DHT22;11079;51.092;3.458;2022-12-18T17:03:58;0.90;99.90
21834;DHT22;11079;51.092;3.458;2022-12-18T17:06:27;0.90;99.90
21834;DHT22;11079;51.092;3.458;2022-12-18T17:08:59;1.10;99.90
21834;DHT22;11079;51.092;3.458;2022-12-18T17:11:26;1.10;99.90
21834;DHT22;11079;51.092;3.458;2022-12-18T17:13:52;1.00;99.90
21834;DHT22;11079;51.092;3.458;2022-12-18T17:16:19;1.10;99.90
21834;DHT22;11079;51.092;3.458;2022-12-18T17:18:46;1.10;99.90
21834;DHT22;11079;51.092;3.458;2022-12-18T17:21:12;1.10;99.90
21834;DHT22;11079;51.092;3.458;2022-12-18T17:23:40;1.10;99.90
21834;DHT22;11079;51.092;3.458;2022-12-18T17:26:06;1.10;99.90
21834;DHT22;11079;51.092;3.458;2022-12-18T17:28:33;1.10;99.90
21834;DHT22;11079;51.092;3.458;2022-12-18T17:30:59;1.10;99.90
21834;DHT22;11079;51.092;3.458;2022-12-18T17:33:25;1.20;99.90